Time;durP1;ratioP1;P1;durP2;ratioP2;P2;SDS_P1;SDS_P2;PMS_P1;PMS_P2;Temp;Humidity;BMP_temperature;BMP_pressure;BME280_temperature;BME280_humidity;BME280_pressure;Samples;Min_cycle;Max_cycle;Signal;HPM_P1;HPM_P2
2023/02/02 00:01:42;;;;;;;14.93;3.58;;;;;;;5.93;100.00;101881.16;5032375;28;20056;-50
2023/02/02 00:04:16;;;;;;;12.32;2.97;;;;;;;5.95;100.00;101877.66;5030896;28;20053;-53
2023/02/02 00:06:52;;;;;;;9.85;3.17;;;;;;;5.96;100.00;101884.56;5030140;28;20570;-51
2023/02/02 00:09:22;;;;;;;12.55;3.25;;;;;;;5.97;100.00;101886.28;5029647;28;20516;-52
2023/02/02 00:11:50;;;;;;;12.80;3.45;;;;;;;5.92;100.00;101889.88;5029416;28;20404;-53
2023/02/02 00:14:19;;;;;;;19.00;4.13;;;;;;;5.95;100.00;101894.16;5029612;28;20534;-52
2023/02/02 00:16:48;;;;;;;17.25;4.10;;;;;;;5.98;100.00;101888.03;5029416;28;20434;-54
2023/02/02 00:19:18;;;;;;;14.63;3.70;;;;;;;5.97;100.00;101881.94;5032118;28;20132;-51
2023/02/02 00:25:21;;;;;;;15.95;4.32;;;;;;;5.92;100.00;101879.44;5029443;28;20132;-53
2023/02/02 00:31:39;;;;;;;16.95;4.97;;;;;;;5.98;100.00;101881.03;5028968;28;20049;-51
2023/02/02 00:34:07;;;;;;;25.35;6.88;;;;;;;6.02;100.00;101887.88;5029997;28;20049;-51
2023/02/02 00:36:35;;;;;;;19.33;5.13;;;;;;;6.05;100.00;101884.34;5029484;28;20045;-53
2023/02/02 00:39:04;;;;;;;16.38;3.55;;;;;;;6.07;100.00;101893.00;5029179;28;20043;-51
2023/02/02 00:41:33;;;;;;;16.48;3.58;;;;;;;6.02;100.00;101890.50;5031686;28;20542;-51
2023/02/02 00:46:52;;;;;;;24.30;4.55;;;;;;;6.06;100.00;101893.88;5015151;28;20492;-53
2023/02/02 00:49:21;;;;;;;18.15;3.80;;;;;;;6.05;100.00;101894.78;5032955;28;20551;-48
2023/02/02 00:51:49;;;;;;;17.70;3.88;;;;;;;6.04;100.00;101895.69;5029998;28;20128;-51
2023/02/02 00:54:17;;;;;;;18.92;4.13;;;;;;;6.06;100.00;101905.19;5029295;28;20053;-51
2023/02/02 00:56:46;;;;;;;18.20;3.33;;;;;;;6.09;100.00;101899.00;5031571;28;20059;-51
2023/02/02 00:59:14;;;;;;;22.83;3.85;;;;;;;6.06;100.00;101888.66;5029585;28;20133;-52
2023/02/02 01:01:43;;;;;;;16.92;3.50;;;;;;;6.04;100.00;101898.28;5031317;28;20574;-51
2023/02/02 01:04:11;;;;;;;23.35;5.00;;;;;;;6.04;100.00;101890.44;5030279;28;20052;-48
2023/02/02 01:06:39;;;;;;;15.35;3.05;;;;;;;6.05;100.00;101884.34;5011622;28;20053;-48
2023/02/02 01:09:07;;;;;;;18.42;3.97;;;;;;;6.04;100.00;101888.72;5028791;28;20049;-48
2023/02/02 01:11:35;;;;;;;13.90;3.42;;;;;;;6.04;100.00;101887.84;5030007;28;20458;-47
2023/02/02 01:14:05;;;;;;;18.02;3.47;;;;;;;6.01;100.00;101891.44;5032867;28;20096;-47
2023/02/02 01:16:33;;;;;;;19.70;3.53;;;;;;;6.03;100.00;101896.59;5032689;28;20128;-47
2023/02/02 01:19:01;;;;;;;20.70;3.63;;;;;;;6.02;100.00;101902.72;5029876;28;20124;-59
2023/02/02 01:21:29;;;;;;;17.77;4.05;;;;;;;5.99;100.00;101894.97;5028794;28;20103;-59
2023/02/02 01:23:57;;;;;;;16.27;3.50;;;;;;;6.02;100.00;101900.09;5027808;28;20065;-50
2023/02/02 01:26:25;;;;;;;18.73;3.17;;;;;;;6.03;100.00;101894.00;5030149;28;20237;-52
2023/02/02 01:28:53;;;;;;;19.15;3.58;;;;;;;6.00;100.00;101894.94;5032288;28;20072;-52
2023/02/02 01:31:23;;;;;;;15.02;3.05;;;;;;;6.07;100.00;101904.28;5028958;28;20049;-51
2023/02/02 01:33:53;;;;;;;21.87;3.23;;;;;;;6.07;100.00;101903.44;5029587;28;20049;-51
2023/02/02 01:36:23;;;;;;;15.48;3.30;;;;;;;6.04;100.00;101903.50;5032499;28;20045;-50
2023/02/02 01:38:52;;;;;;;17.48;3.50;;;;;;;6.03;100.00;101904.44;5030999;28;20053;-51
2023/02/02 01:41:22;;;;;;;15.73;3.38;;;;;;;6.00;100.00;101907.09;5028813;28;20136;-50
2023/02/02 01:43:53;;;;;;;13.23;2.90;;;;;;;5.99;100.00;101913.25;5028503;28;20115;-48
2023/02/02 01:46:25;;;;;;;11.65;2.60;;;;;;;6.03;100.00;101918.34;5032157;28;20065;-49
2023/02/02 01:49:02;;;;;;;14.25;2.80;;;;;;;5.98;100.00;101914.16;5032318;28;20075;-52
2023/02/02 01:51:36;;;;;;;14.60;3.13;;;;;;;5.97;100.00;101917.63;5029990;28;20115;-52
2023/02/02 01:54:08;;;;;;;16.23;3.13;;;;;;;5.95;100.00;101919.44;5026826;28;20054;-51
2023/02/02 01:56:44;;;;;;;16.77;3.28;;;;;;;5.95;100.00;101914.22;5032012;28;20120;-52
2023/02/02 01:59:15;;;;;;;16.60;3.53;;;;;;;5.95;100.00;101914.22;5030494;28;20049;-50
2023/02/02 02:01:47;;;;;;;14.38;3.15;;;;;;;5.95;100.00;101922.03;5028609;28;20073;-49
2023/02/02 02:04:16;;;;;;;16.77;3.40;;;;;;;5.90;100.00;101923.03;5028571;28;20041;-51
2023/02/02 02:06:50;;;;;;;17.35;3.63;;;;;;;5.97;100.00;101921.09;5031457;28;20495;-51
2023/02/02 02:09:18;;;;;;;16.92;3.20;;;;;;;5.91;100.00;101919.50;5031355;28;20045;-48
2023/02/02 02:11:46;;;;;;;17.45;3.47;;;;;;;5.91;100.00;101923.88;5028130;28;20092;-51
2023/02/02 02:17:16;;;;;;;17.23;3.40;;;;;;;5.89;100.00;101918.72;5028677;28;20404;-50
2023/02/02 02:27:04;;;;;;;16.92;3.15;;;;;;;5.84;100.00;101911.91;5057560;28;20261;-51
2023/02/02 02:30:18;;;;;;;13.00;2.10;;;;;;;5.81;100.00;101914.56;5062967;28;20060;-53
2023/02/02 02:32:53;;;;;;;10.70;2.10;;;;;;;5.77;100.00;101911.22;5025266;28;20068;-52
2023/02/02 02:35:31;;;;;;;12.63;2.22;;;;;;;5.79;100.00;101905.94;5055573;28;20057;-53
2023/02/02 02:38:05;;;;;;;11.30;1.98;;;;;;;5.76;100.00;101909.50;5062120;28;20483;-53
2023/02/02 02:40:37;;;;;;;10.15;2.50;;;;;;;5.78;100.00;101912.94;5066542;28;20518;-52
2023/02/02 02:43:10;;;;;;;9.60;1.60;;;;;;;5.72;100.00;101918.31;5040586;28;20064;-53
2023/02/02 02:45:40;;;;;;;9.07;1.85;;;;;;;5.67;100.00;101914.97;5042731;28;20053;-52
2023/02/02 02:48:13;;;;;;;7.60;1.75;;;;;;;5.68;100.00;101911.47;5026617;28;20497;-52
2023/02/02 02:50:41;;;;;;;6.63;1.90;;;;;;;5.65;100.00;101907.19;5028017;28;20125;-52
2023/02/02 02:53:14;;;;;;;8.23;1.60;;;;;;;5.59;100.00;101905.59;5063624;28;20065;-53
2023/02/02 02:55:49;;;;;;;7.18;2.20;;;;;;;5.61;100.00;101905.56;5062554;28;20056;-50
2023/02/02 02:58:20;;;;;;;8.40;2.28;;;;;;;5.62;100.00;101909.00;5064830;28;20087;-52
2023/02/02 03:00:59;;;;;;;7.45;1.90;;;;;;;5.64;100.00;101894.19;5044482;28;20052;-51
2023/02/02 03:03:40;;;;;;;13.70;2.30;;;;;;;5.65;100.00;101906.34;5046294;28;20053;-51
2023/02/02 03:06:16;;;;;;;7.43;2.05;;;;;;;5.66;100.00;101889.75;5060474;28;20274;-51
2023/02/02 03:08:52;;;;;;;12.88;3.10;;;;;;;5.65;100.00;101893.28;5058689;28;20125;-59
2023/02/02 03:11:21;;;;;;;9.98;2.70;;;;;;;5.68;100.00;101885.38;5059060;28;20126;-57
2023/02/02 03:13:49;;;;;;;9.57;2.58;;;;;;;5.70;100.00;101880.94;5042369;28;20103;-59
2023/02/02 03:16:17;;;;;;;10.95;3.05;;;;;;;5.72;100.00;101881.78;5064964;28;20068;-59
2023/02/02 03:18:47;;;;;;;13.80;3.00;;;;;;;5.69;100.00;101885.31;5033526;28;20059;-59
2023/02/02 03:21:15;;;;;;;11.05;2.83;;;;;;;5.70;100.00;101888.78;5064728;28;20057;-59
2023/02/02 03:23:44;;;;;;;10.27;3.10;;;;;;;5.69;100.00;101894.91;5058854;28;20189;-59
2023/02/02 03:26:12;;;;;;;15.50;3.63;;;;;;;5.67;100.00;101900.19;5061219;28;20079;-59
2023/02/02 03:28:40;;;;;;;10.93;3.00;;;;;;;5.73;100.00;101897.38;5051071;28;20168;-59
2023/02/02 03:31:09;;;;;;;18.27;3.08;;;;;;;5.75;100.00;101905.16;5029201;28;20529;-59
2023/02/02 03:33:38;;;;;;;12.95;3.78;;;;;;;5.68;100.00;101908.84;5046488;28;20056;-59
2023/02/02 03:36:09;;;;;;;13.27;3.00;;;;;;;5.68;100.00;101920.13;5030691;28;20440;-51
2023/02/02 03:38:39;;;;;;;13.50;3.15;;;;;;;5.69;100.00;101915.81;5037533;28;20049;-51
2023/02/02 03:41:07;;;;;;;11.50;3.03;;;;;;;5.70;100.00;101920.97;5036592;28;20115;-51
2023/02/02 03:43:35;;;;;;;12.48;3.50;;;;;;;5.70;100.00;101920.09;5032853;28;20065;-49
2023/02/02 03:46:05;;;;;;;11.85;3.28;;;;;;;5.70;100.00;101922.72;5053842;28;20056;-49
2023/02/02 03:48:36;;;;;;;14.63;3.30;;;;;;;5.73;100.00;101920.03;5042218;28;20079;-50
2023/02/02 03:51:11;;;;;;;13.52;3.15;;;;;;;5.73;100.00;101913.03;5040434;28;20064;-52
2023/02/02 03:53:40;;;;;;;14.00;3.05;;;;;;;5.70;100.00;101913.13;5030408;28;20061;-52
2023/02/02 03:56:08;;;;;;;14.82;2.97;;;;;;;5.72;100.00;101918.31;5038009;28;20069;-52
2023/02/02 03:58:36;;;;;;;11.30;2.90;;;;;;;5.72;100.00;101908.72;5040476;28;20058;-53
2023/02/02 04:01:05;;;;;;;15.68;3.53;;;;;;;5.68;100.00;101911.47;5042815;28;20516;-52
2023/02/02 04:03:33;;;;;;;13.00;3.53;;;;;;;5.72;100.00;101910.47;5038143;28;20064;-50
2023/02/02 04:06:01;;;;;;;11.82;3.17;;;;;;;5.71;100.00;101917.47;5033515;28;20533;-51
2023/02/02 04:08:31;;;;;;;15.85;3.30;;;;;;;5.74;100.00;101911.31;5037154;28;20502;-52
2023/02/02 04:10:59;;;;;;;18.70;3.88;;;;;;;5.80;100.00;101920.72;5036187;28;20057;-52
2023/02/02 04:13:28;;;;;;;14.00;3.85;;;;;;;5.80;100.00;101912.88;5002035;28;20502;-52
2023/02/02 04:15:59;;;;;;;14.23;3.20;;;;;;;5.76;100.00;101897.28;5031979;28;20065;-52
2023/02/02 04:18:29;;;;;;;16.63;3.10;;;;;;;5.78;100.00;101891.19;4991881;28;1148359;-52
2023/02/02 04:21:01;;;;;;;14.13;3.80;;;;;;;5.79;100.00;101890.28;5035579;28;20140;-53
2023/02/02 04:23:31;;;;;;;14.98;3.17;;;;;;;5.80;100.00;101884.19;5032294;28;20056;-51
2023/02/02 04:26:00;;;;;;;17.17;3.95;;;;;;;5.85;100.00;101890.97;5031868;28;20069;-52
2023/02/02 04:28:28;;;;;;;17.48;4.10;;;;;;;5.88;100.00;101887.41;5032089;28;20061;-53
2023/02/02 04:30:57;;;;;;;18.55;2.95;;;;;;;5.89;100.00;101884.75;5012192;28;20057;-54
2023/02/02 04:33:26;;;;;;;12.50;3.03;;;;;;;5.96;100.00;101897.63;5036263;28;20096;-54
2023/02/02 04:35:55;;;;;;;21.02;4.32;;;;;;;5.92;100.00;101887.28;5035442;28;20061;-49
2023/02/02 04:38:23;;;;;;;17.35;3.35;;;;;;;5.95;100.00;101885.50;5028329;28;20128;-49
2023/02/02 04:40:52;;;;;;;23.27;3.80;;;;;;;5.94;100.00;101897.66;5034885;28;20087;-49
2023/02/02 04:43:20;;;;;;;22.42;4.50;;;;;;;5.98;100.00;101890.66;5044598;28;20065;-51
2023/02/02 04:45:54;;;;;;;18.17;3.90;;;;;;;5.98;100.00;101898.47;5039969;28;20057;-49
2023/02/02 04:48:22;;;;;;;14.52;3.35;;;;;;;6.05;100.00;101898.28;5013364;28;20057;-48
2023/02/02 04:50:59;;;;;;;18.50;4.13;;;;;;;6.04;100.00;101904.38;5026928;28;20086;-50
2023/02/02 04:53:27;;;;;;;23.05;4.30;;;;;;;6.06;100.00;101904.34;5024872;28;20518;-51
2023/02/02 04:55:57;;;;;;;16.05;3.42;;;;;;;6.01;100.00;101909.72;5035693;28;20056;-49
2023/02/02 04:58:25;;;;;;;22.10;3.95;;;;;;;6.02;100.00;101910.56;5034132;28;20064;-58
2023/02/02 05:00:53;;;;;;;15.98;3.60;;;;;;;6.07;100.00;101917.34;5029787;28;20547;-60
2023/02/02 05:03:21;;;;;;;14.75;3.45;;;;;;;6.05;100.00;101911.31;5028956;28;20092;-60
2023/02/02 05:05:49;;;;;;;19.73;3.40;;;;;;;6.07;100.00;101913.88;5033999;28;20123;-60
2023/02/02 05:08:17;;;;;;;19.48;3.95;;;;;;;6.10;100.00;101919.00;5028134;28;20103;-60
2023/02/02 05:10:46;;;;;;;15.30;3.20;;;;;;;6.16;100.00;101915.38;5045259;28;20067;-60
2023/02/02 05:13:15;;;;;;;15.82;3.50;;;;;;;6.13;100.00;101923.28;5039943;28;20057;-60
2023/02/02 05:15:44;;;;;;;19.05;3.80;;;;;;;6.12;100.00;101917.19;5029078;28;20060;-60
2023/02/02 05:18:12;;;;;;;15.77;3.58;;;;;;;6.11;100.00;101920.72;5033714;28;20077;-60
2023/02/02 05:20:40;;;;;;;18.50;3.40;;;;;;;6.20;100.00;101928.31;5032699;28;21366;-60
2023/02/02 05:23:08;;;;;;;17.77;4.05;;;;;;;6.16;100.00;101924.06;5035157;28;20534;-60
2023/02/02 05:25:36;;;;;;;15.13;3.88;;;;;;;6.16;100.00;101918.84;5045183;28;20061;-60
2023/02/02 05:28:07;;;;;;;18.20;3.63;;;;;;;6.18;100.00;101917.03;5039016;28;20052;-60
2023/02/02 05:30:39;;;;;;;22.00;3.53;;;;;;;6.24;100.00;101914.25;5037600;28;20061;-60
2023/02/02 05:33:07;;;;;;;24.67;5.80;;;;;;;6.22;100.00;101915.19;5037743;28;20101;-60
2023/02/02 05:35:35;;;;;;;22.05;3.90;;;;;;;6.21;100.00;101919.53;5030898;28;20065;-60
2023/02/02 05:38:03;;;;;;;15.75;3.63;;;;;;;6.27;100.00;101923.72;5037114;28;20084;-60
2023/02/02 05:40:31;;;;;;;15.60;3.40;;;;;;;6.27;100.00;101921.13;5026124;28;20107;-60
2023/02/02 05:42:59;;;;;;;18.88;3.97;;;;;;;6.25;100.00;101928.16;5021890;28;20068;-60
2023/02/02 05:45:28;;;;;;;16.30;2.88;;;;;;;6.25;100.00;101923.78;5025704;28;20061;-60
2023/02/02 05:47:57;;;;;;;14.98;3.30;;;;;;;6.29;100.00;101915.88;5038778;28;20630;-60
2023/02/02 05:50:25;;;;;;;13.88;3.83;;;;;;;6.34;100.00;101927.88;5039161;28;20065;-58
2023/02/02 05:52:54;;;;;;;16.98;3.22;;;;;;;6.34;100.00;101920.06;5013094;28;20520;-60
2023/02/02 05:55:22;;;;;;;13.35;3.10;;;;;;;6.31;100.00;101925.34;5021557;28;20151;-60
2023/02/02 05:57:50;;;;;;;16.85;3.88;;;;;;;6.36;100.00;101925.22;5034903;28;20072;-60
2023/02/02 06:00:19;;;;;;;19.25;3.75;;;;;;;6.41;100.00;101925.94;5039109;28;20057;-60
2023/02/02 06:02:47;;;;;;;21.33;4.05;;;;;;;6.37;100.00;101924.34;5042653;28;20423;-60
2023/02/02 06:05:17;;;;;;;15.02;3.42;;;;;;;6.35;100.00;101928.72;5018834;28;20144;-61
2023/02/02 06:07:46;;;;;;;18.20;3.40;;;;;;;6.34;100.00;101922.66;5039426;28;20064;-60
2023/02/02 06:10:14;;;;;;;17.13;3.92;;;;;;;6.38;100.00;101923.41;5043047;28;20053;-60
2023/02/02 06:12:43;;;;;;;17.73;4.20;;;;;;;6.36;100.00;101925.22;5032423;28;20099;-49
2023/02/02 06:15:11;;;;;;;18.73;4.22;;;;;;;6.36;100.00;101928.69;5042542;28;20057;-52
2023/02/02 06:17:39;;;;;;;16.58;4.40;;;;;;;6.34;100.00;101934.84;5038145;28;20576;-50
2023/02/02 06:20:08;;;;;;;14.70;3.60;;;;;;;6.38;100.00;101939.97;5038755;28;20054;-52
2023/02/02 06:22:38;;;;;;;12.38;3.63;;;;;;;6.36;100.00;101939.13;5031504;28;20061;-50
2023/02/02 06:25:07;;;;;;;16.77;3.45;;;;;;;6.38;100.00;101936.47;5041837;28;20490;-53
2023/02/02 06:27:35;;;;;;;14.73;3.15;;;;;;;6.39;100.00;101943.41;5041913;28;20155;-49
2023/02/02 06:30:07;;;;;;;16.83;3.97;;;;;;;6.38;100.00;101941.69;5037391;28;20103;-53
2023/02/02 06:32:38;;;;;;;15.82;3.28;;;;;;;6.38;100.00;101946.94;5039075;28;20080;-52
2023/02/02 06:35:08;;;;;;;18.60;3.63;;;;;;;6.39;100.00;101946.91;5032964;28;20065;-49
2023/02/02 06:37:37;;;;;;;18.88;3.75;;;;;;;6.37;100.00;101955.69;5034825;28;20080;-50
2023/02/02 06:40:09;;;;;;;15.38;3.58;;;;;;;6.35;100.00;101960.09;5037758;28;20083;-50
2023/02/02 06:42:37;;;;;;;18.30;3.72;;;;;;;6.35;100.00;101955.72;5041735;28;20064;-52
2023/02/02 06:45:07;;;;;;;13.73;3.38;;;;;;;6.41;100.00;101965.16;5037177;28;20171;-50
2023/02/02 06:47:35;;;;;;;16.73;3.40;;;;;;;6.38;100.00;101965.22;5043957;28;20084;-51
2023/02/02 06:50:03;;;;;;;15.50;3.75;;;;;;;6.37;100.00;101969.59;5042268;28;20084;-50
2023/02/02 06:52:31;;;;;;;17.55;3.78;;;;;;;6.44;100.00;101967.66;5043435;28;20073;-53
2023/02/02 06:54:59;;;;;;;19.52;3.83;;;;;;;6.38;100.00;101973.94;5032864;28;20108;-54
2023/02/02 06:57:29;;;;;;;12.25;3.55;;;;;;;6.37;100.00;101980.06;5039387;28;20053;-52
2023/02/02 06:59:57;;;;;;;14.35;3.72;;;;;;;6.38;100.00;101979.16;5043866;28;20461;-54
2023/02/02 07:02:25;;;;;;;17.50;4.00;;;;;;;6.37;100.00;101980.06;5036499;28;20053;-55
2023/02/02 07:04:53;;;;;;;15.60;4.03;;;;;;;6.35;100.00;101988.84;5042816;28;20065;-53
2023/02/02 07:07:21;;;;;;;14.13;3.42;;;;;;;6.37;100.00;101979.22;5037497;28;20061;-53
2023/02/02 07:09:50;;;;;;;11.70;3.63;;;;;;;6.39;100.00;101982.63;5032318;28;20061;-52
2023/02/02 07:12:26;;;;;;;12.65;3.80;;;;;;;6.33;100.00;101982.81;5020492;28;20440;-52
2023/02/02 07:14:58;;;;;;;17.23;4.35;;;;;;;6.33;100.00;101983.66;5011253;28;20088;-60
2023/02/02 07:17:26;;;;;;;18.63;4.05;;;;;;;6.33;100.00;101990.66;5044149;28;20151;-60
2023/02/02 07:19:54;;;;;;;14.07;3.47;;;;;;;6.34;100.00;101979.28;5035709;28;20124;-60
2023/02/02 07:22:22;;;;;;;19.08;4.28;;;;;;;6.39;100.00;101985.22;5036105;28;20068;-60
2023/02/02 07:29:13;;;;;;;17.48;3.38;;;;;;;6.33;100.00;101990.66;5063464;28;20087;-60
2023/02/02 07:31:43;;;;;;;12.48;3.90;;;;;;;6.40;100.00;101981.72;5070020;28;20439;-60
2023/02/02 07:34:11;;;;;;;15.13;3.95;;;;;;;6.31;100.00;101977.59;5069490;28;20040;-60
2023/02/02 07:36:39;;;;;;;16.48;4.30;;;;;;;6.39;100.00;101995.69;5070998;28;20098;-61
2023/02/02 07:39:07;;;;;;;20.52;4.05;;;;;;;6.33;100.00;101996.72;5073126;28;20440;-60
2023/02/02 07:41:36;;;;;;;11.98;3.90;;;;;;;6.32;100.00;102000.22;5046639;28;20059;-61
2023/02/02 07:44:06;;;;;;;20.98;4.50;;;;;;;6.37;100.00;101995.72;5070208;28;20044;-61
2023/02/02 07:46:34;;;;;;;15.35;4.80;;;;;;;6.34;100.00;102005.41;5073224;28;20048;-61
2023/02/02 07:49:04;;;;;;;15.68;4.25;;;;;;;6.32;100.00;102007.22;5072402;28;20111;-61
2023/02/02 07:51:33;;;;;;;13.50;3.95;;;;;;;6.34;100.00;102006.28;5070706;28;20445;-60
2023/02/02 07:54:01;;;;;;;19.95;4.07;;;;;;;6.34;100.00;102018.47;5069576;28;20037;-61
2023/02/02 07:56:32;;;;;;;15.55;4.35;;;;;;;6.35;100.00;102020.19;5068119;28;20052;-60
2023/02/02 07:59:00;;;;;;;17.73;4.25;;;;;;;6.38;100.00;102018.34;5069870;28;20128;-60
2023/02/02 08:01:28;;;;;;;13.43;4.20;;;;;;;6.38;100.00;102027.94;5069556;28;20550;-60
2023/02/02 08:03:59;;;;;;;17.35;4.47;;;;;;;6.41;100.00;102031.31;5069951;28;20109;-60
2023/02/02 08:06:31;;;;;;;16.08;3.67;;;;;;;6.39;100.00;102035.75;5069100;28;20041;-60
2023/02/02 08:09:00;;;;;;;15.85;3.70;;;;;;;6.40;100.00;102036.59;5069188;28;20059;-61
2023/02/02 08:11:31;;;;;;;19.48;4.35;;;;;;;6.40;100.00;102040.06;5072201;28;20040;-60
2023/02/02 08:14:01;;;;;;;20.42;4.75;;;;;;;6.37;100.00;102037.53;5055365;28;20072;-60
2023/02/02 08:16:31;;;;;;;11.85;4.40;;;;;;;6.37;100.00;102036.69;5068707;28;20103;-60
2023/02/02 08:19:00;;;;;;;15.82;4.60;;;;;;;6.35;100.00;102039.31;5072844;28;20055;-60
2023/02/02 08:21:32;;;;;;;16.25;4.85;;;;;;;6.35;100.00;102041.09;5068546;28;20592;-60
2023/02/02 08:24:00;;;;;;;23.38;5.63;;;;;;;6.40;100.00;102029.59;5069244;28;20063;-60
2023/02/02 08:26:30;;;;;;;19.70;5.75;;;;;;;6.38;100.00;102039.25;5069057;28;20041;-61
2023/02/02 08:29:00;;;;;;;15.65;4.43;;;;;;;6.40;100.00;102042.66;5070635;28;20109;-60
2023/02/02 08:31:31;;;;;;;18.17;4.75;;;;;;;6.40;100.00;102045.28;5067913;28;20641;-61
2023/02/02 08:33:59;;;;;;;20.90;4.20;;;;;;;6.45;100.00;102046.91;5072306;28;20048;-61
2023/02/02 08:36:30;;;;;;;16.77;4.40;;;;;;;6.41;100.00;102054.84;5068785;28;20523;-60
2023/02/02 08:39:00;;;;;;;18.90;3.85;;;;;;;6.43;100.00;102050.44;5068544;28;20044;-61
2023/02/02 08:41:30;;;;;;;17.98;4.35;;;;;;;6.49;100.00;102057.25;5068189;28;20123;-61
2023/02/02 08:43:59;;;;;;;21.10;4.80;;;;;;;6.41;100.00;102059.22;5069062;28;20115;-61
2023/02/02 08:46:27;;;;;;;23.02;4.40;;;;;;;6.47;100.00;102059.03;5068413;28;20044;-60
2023/02/02 08:48:55;;;;;;;19.05;4.50;;;;;;;6.51;100.00;102067.66;5071576;28;20074;-60
2023/02/02 08:51:23;;;;;;;22.38;4.75;;;;;;;6.50;100.00;102072.00;5068329;28;20079;-61
2023/02/02 08:53:53;;;;;;;15.75;4.22;;;;;;;6.48;100.00;102076.44;5068793;28;20056;-60
2023/02/02 08:56:22;;;;;;;15.20;4.60;;;;;;;6.54;100.00;102073.63;5067424;28;20052;-61
2023/02/02 08:58:55;;;;;;;13.20;4.47;;;;;;;6.53;100.00;102082.41;5068914;28;20487;-49
2023/02/02 09:01:25;;;;;;;18.65;4.45;;;;;;;6.57;100.00;102080.53;5068778;28;20053;-51
2023/02/02 09:03:54;;;;;;;15.43;4.40;;;;;;;6.58;100.00;102088.31;5070078;28;20032;-53
2023/02/02 09:06:27;;;;;;;13.90;3.60;;;;;;;6.59;100.00;102083.97;5053767;28;20044;-52
2023/02/02 09:08:57;;;;;;;17.77;4.00;;;;;;;6.65;100.00;102093.41;5072056;28;20052;-53
2023/02/02 09:11:25;;;;;;;13.80;4.40;;;;;;;6.62;100.00;102093.50;5070533;28;20053;-53
2023/02/02 09:13:55;;;;;;;22.48;4.40;;;;;;;6.62;100.00;102093.50;5068524;28;20049;-53
2023/02/02 09:16:25;;;;;;;14.65;4.10;;;;;;;6.66;100.00;102097.72;5067231;28;20040;-52
2023/02/02 09:18:54;;;;;;;16.02;4.50;;;;;;;6.70;100.00;102101.97;5067701;28;20040;-53
2023/02/02 09:21:23;;;;;;;17.90;3.70;;;;;;;6.71;100.00;102107.16;5066634;28;20040;-50
2023/02/02 09:23:53;;;;;;;17.33;3.92;;;;;;;6.72;100.00;102121.94;5065993;28;20044;-50
2023/02/02 09:26:24;;;;;;;19.08;5.28;;;;;;;6.77;100.00;102117.41;5070528;28;20110;-52
2023/02/02 09:28:55;;;;;;;20.20;5.25;;;;;;;6.79;100.00;102127.84;5070798;28;20056;-48
2023/02/02 09:31:24;;;;;;;16.98;4.32;;;;;;;6.81;100.00;102126.03;5069449;28;20036;-50
2023/02/02 09:33:52;;;;;;;17.67;4.63;;;;;;;6.82;100.00;102138.22;5071942;28;20444;-52
2023/02/02 09:36:23;;;;;;;18.73;4.18;;;;;;;6.83;100.00;102133.84;5069745;28;20061;-52
2023/02/02 09:38:51;;;;;;;19.73;4.32;;;;;;;6.84;100.00;102152.09;5069827;28;20051;-52
2023/02/02 09:42:08;;;;;;;12.90;3.50;;;;;;;6.91;100.00;102143.19;5069349;28;20119;-51
2023/02/02 09:44:51;;;;;;;15.52;4.03;;;;;;;6.98;100.00;102145.63;5071986;28;20048;-49
2023/02/02 09:47:23;;;;;;;16.90;4.05;;;;;;;6.99;100.00;102152.56;5072872;28;20051;-50
2023/02/02 09:50:00;;;;;;;19.33;4.35;;;;;;;6.98;100.00;102150.84;5072503;28;20044;-52
2023/02/02 09:52:34;;;;;;;12.98;4.28;;;;;;;7.02;100.00;102149.84;5051116;28;20052;-49
2023/02/02 09:55:06;;;;;;;15.25;3.67;;;;;;;7.01;100.00;102155.97;5074191;28;20041;-50
2023/02/02 09:57:42;;;;;;;16.30;3.95;;;;;;;7.02;100.00;102160.31;5075013;28;20123;-50
2023/02/02 10:00:34;;;;;;;19.77;4.20;;;;;;;7.05;100.00;102155.88;5073086;28;20044;-52
2023/02/02 10:03:10;;;;;;;19.25;3.95;;;;;;;7.07;100.00;102168.91;5073496;28;20399;-61
2023/02/02 10:05:47;;;;;;;18.80;3.88;;;;;;;7.11;100.00;102168.75;5072902;28;20047;-61
2023/02/02 10:08:36;;;;;;;15.45;3.78;;;;;;;7.10;100.00;102174.03;5070324;28;20048;-61
2023/02/02 10:11:17;;;;;;;16.13;2.88;;;;;;;7.12;100.00;102174.84;5070937;28;20059;-61
2023/02/02 10:13:48;;;;;;;17.50;4.35;;;;;;;7.12;100.00;102172.25;5071422;28;20637;-61
2023/02/02 10:16:19;;;;;;;13.38;3.88;;;;;;;7.16;100.00;102168.63;5071322;28;20068;-61
2023/02/02 10:18:54;;;;;;;21.50;3.55;;;;;;;7.18;100.00;102171.19;5072924;28;20082;-61
2023/02/02 10:21:31;;;;;;;15.15;4.18;;;;;;;7.26;100.00;102179.66;5075440;28;20028;-61
2023/02/02 10:24:03;;;;;;;19.60;4.20;;;;;;;7.30;100.00;102186.53;5075509;28;20044;-61
2023/02/02 10:26:37;;;;;;;20.00;3.72;;;;;;;7.37;100.00;102192.44;5075279;28;20045;-61
2023/02/02 10:29:15;;;;;;;18.38;4.70;;;;;;;7.31;100.00;102188.25;5070722;28;20057;-61
2023/02/02 10:31:48;;;;;;;20.38;4.15;;;;;;;7.35;100.00;102199.47;5055061;28;20087;-61
2023/02/02 10:34:22;;;;;;;17.67;3.55;;;;;;;7.42;100.00;102196.63;5055260;28;20037;-61
2023/02/02 10:37:03;;;;;;;16.75;3.55;;;;;;;7.43;100.00;102194.84;5051619;28;20424;-61
2023/02/02 10:39:43;;;;;;;12.30;3.50;;;;;;;7.40;100.00;102197.56;5049383;28;20037;-61
2023/02/02 10:42:22;;;;;;;14.65;3.60;;;;;;;7.44;100.00;102214.91;5048397;28;20060;-61
2023/02/02 10:44:55;;;;;;;13.30;3.45;;;;;;;7.45;100.00;102216.63;5050472;28;20057;-61
2023/02/02 10:47:27;;;;;;;12.70;3.63;;;;;;;7.44;100.00;102217.50;5053099;28;20033;-61
2023/02/02 10:50:07;;;;;;;12.57;3.42;;;;;;;7.45;100.00;102222.69;5052699;28;20052;-61
2023/02/02 10:52:37;;;;;;;14.90;4.97;;;;;;;7.49;100.00;102213.00;5053347;28;20072;-61
2023/02/02 10:55:14;;;;;;;14.40;3.42;;;;;;;7.51;100.00;102215.56;5053809;28;20071;-61
2023/02/02 10:58:00;;;;;;;13.50;3.55;;;;;;;7.61;100.00;102204.78;5050635;28;20045;-61
2023/02/02 11:00:35;;;;;;;14.80;4.38;;;;;;;7.52;100.00;102207.66;5054776;28;20037;-61
2023/02/02 11:03:05;;;;;;;16.92;3.67;;;;;;;7.52;100.00;102196.34;5053146;28;20051;-61
2023/02/02 11:08:32;;;;;;;17.55;3.70;;;;;;;7.63;100.00;102204.72;5049482;28;20099;-61
2023/02/02 11:11:11;;;;;;;14.65;3.33;;;;;;;7.65;100.00;102202.06;5050447;28;20428;-61
2023/02/02 11:13:44;;;;;;;16.45;3.40;;;;;;;7.63;100.00;102202.09;5052798;28;20041;-61
2023/02/02 11:16:26;;;;;;;16.08;3.70;;;;;;;7.69;100.00;102201.94;5051790;28;20522;-61
2023/02/02 11:19:23;;;;;;;12.95;3.63;;;;;;;7.68;100.00;102202.81;5050776;28;20036;-61
2023/02/02 11:21:53;;;;;;;11.77;3.33;;;;;;;7.70;100.00;102194.91;5048855;28;20041;-61
2023/02/02 11:24:24;;;;;;;9.88;3.30;;;;;;;7.69;100.00;102220.25;5046741;28;20063;-61
2023/02/02 11:26:55;;;;;;;12.23;3.70;;;;;;;7.67;100.00;102211.56;5048751;28;20048;-61
2023/02/02 11:29:29;;;;;;;11.82;3.88;;;;;;;7.66;100.00;102209.84;5063517;28;20067;-61
2023/02/02 11:32:17;;;;;;;16.67;3.67;;;;;;;7.67;100.00;102201.09;5071120;28;20131;-61
2023/02/02 11:34:45;;;;;;;15.50;3.58;;;;;;;7.65;100.00;102202.94;5073775;28;20120;-61
2023/02/02 11:37:15;;;;;;;13.40;3.10;;;;;;;7.66;100.00;102199.38;5067907;28;20042;-61
2023/02/02 11:39:44;;;;;;;15.27;3.22;;;;;;;7.66;100.00;102195.91;5070107;28;20517;-61
2023/02/02 11:42:17;;;;;;;13.57;3.22;;;;;;;7.68;100.00;102199.38;5068776;28;20066;-61
2023/02/02 11:44:48;;;;;;;11.40;3.10;;;;;;;7.64;100.00;102192.50;5069869;28;20060;-61
2023/02/02 11:47:25;;;;;;;15.65;3.38;;;;;;;7.60;100.00;102189.97;5052192;28;20068;-61
2023/02/02 11:49:55;;;;;;;15.05;3.00;;;;;;;7.68;100.00;102201.97;5070861;28;20078;-61
2023/02/02 11:52:28;;;;;;;13.40;3.15;;;;;;;7.66;100.00;102199.38;5069684;28;20117;-52
2023/02/02 11:55:02;;;;;;;15.18;3.00;;;;;;;7.56;100.00;102208.44;5068917;28;20044;-53
2023/02/02 11:57:30;;;;;;;15.60;3.58;;;;;;;7.56;100.00;102198.81;5070971;28;20052;-50
2023/02/02 12:00:17;;;;;;;16.50;3.75;;;;;;;7.61;100.00;102204.78;5073670;28;20047;-50
2023/02/02 12:02:48;;;;;;;15.80;3.85;;;;;;;7.59;100.00;102198.75;5073349;28;20040;-53